Latest Weather Observations for Hartz Mountains

IDT60801

Issued at 10:02 pm EST Sunday 25 June 2017 (issued every 30 minutes, with the page automatically refreshed every 10 minutes)

About weather observations | Map of weather stations | Latest weather observations for TAS | Other Formats
Station Details ID: 094191 Name: HARTZ MOUNTAIN (KEOGHS PIMPLE) Lat: -43.20 Lon: 146.77 Height: 831.0 m
Data from the previous 72 hours. | See also: Recent months at Hartz Mountains
Date/Time
EST
Temp
°C
App
Temp
°C
Dew
Point
°C
Rel
Hum
%
Delta-T
°C
Wind Press
QNH
hPa
Press
MSL
hPa
Rain since
9am
mm
Dir  Spd
km/h
Gust
km/h
Spd
kts
Gust
kts
25/10:00pm 0.8 -9.2 0.8 100 0.0 WSW 43 56 23 30 - - 7.8
25/09:34pm 0.8 -8.9 0.8 100 0.0 WSW 41 63 22 34 - - 7.8
25/09:30pm 0.9 -8.7 0.9 100 0.0 WSW 41 57 22 31 - - 7.8
25/09:03pm 0.9 -9.1 0.9 100 0.0 WSW 43 61 23 33 - - 7.8
25/09:00pm 0.9 -9.1 0.9 100 0.0 WSW 43 57 23 31 - - 7.8
25/08:36pm 1.0 -9.6 1.0 100 0.0 WSW 46 67 25 36 - - 7.6
25/08:30pm 1.2 -8.8 1.2 100 0.0 WSW 43 56 23 30 - - 7.6
25/08:00pm 1.1 -10.2 1.1 100 0.0 WSW 50 74 27 40 - - 7.6
25/07:30pm 1.0 -10.3 1.0 100 0.0 WSW 50 69 27 37 - - 7.6
25/07:06pm 0.7 -10.3 0.7 100 0.0 WSW 48 67 26 36 - - 7.2
25/07:00pm 1.1 -9.8 1.1 100 0.0 W 48 61 26 33 - - 7.2
25/06:30pm 1.6 -9.6 1.6 100 0.0 WSW 50 69 27 37 - - 6.8
25/06:00pm 1.7 -8.8 1.7 100 0.0 WSW 46 65 25 35 - - 6.8
25/05:50pm 1.5 -8.4 1.5 100 0.0 WSW 43 61 23 33 - - 6.8
25/05:30pm 1.8 -7.7 1.8 100 0.0 WSW 41 57 22 31 - - 6.2
25/05:01pm 1.9 -7.2 1.9 100 0.0 WSW 39 57 21 31 - - 6.2
25/05:00pm 1.9 -7.6 1.9 100 0.0 WSW 41 57 22 31 - - 6.2
25/04:44pm 1.9 -6.1 1.9 100 0.0 WSW 33 52 18 28 - - 6.2
25/04:30pm 1.8 -7.7 1.8 100 0.0 WSW 41 52 22 28 - - 6.2
25/04:09pm 1.6 -8.3 1.6 100 0.0 WSW 43 61 23 33 - - 5.8
25/04:00pm 1.9 -7.6 1.9 100 0.0 WSW 41 54 22 29 - - 5.6
25/03:30pm 2.3 -7.7 2.3 100 0.0 WSW 44 63 24 34 - - 4.8
25/03:00pm 2.5 -6.1 2.5 100 0.0 WSW 37 65 20 35 - - 4.4
25/02:42pm 2.6 -4.7 2.6 100 0.0 W 30 76 16 41 - - 4.4
25/02:40pm 2.6 -4.7 2.6 100 0.0 W 30 56 16 30 - - 4.4
25/02:32pm 2.6 -3.9 2.6 100 0.0 W 26 56 14 30 - - 4.4
25/02:30pm 2.5 -3.6 2.5 100 0.0 W 24 50 13 27 - - 4.4
25/02:00pm 2.7 -4.2 2.7 100 0.0 W 28 50 15 27 - - 4.4
25/01:30pm 2.8 -4.1 2.8 100 0.0 WNW 28 65 15 35 - - 4.2
25/01:29pm 2.7 -4.2 2.7 100 0.0 WNW 28 65 15 35 - - 4.2
25/01:00pm 2.8 -3.7 2.8 100 0.0 WNW 26 44 14 24 - - 4.0
25/12:30pm 2.7 -5.1 2.7 100 0.0 WNW 33 57 18 31 - - 3.4
25/12:02pm 2.6 -5.6 2.6 100 0.0 WNW 35 54 19 29 - - 2.4
25/12:00pm 2.6 -6.0 2.6 100 0.0 WNW 37 52 20 28 - - 2.4
25/11:30am 2.1 -5.3 2.1 100 0.0 WNW 30 48 16 26 - - 2.2
25/11:00am 2.1 -7.0 2.1 100 0.0 WNW 39 57 21 31 - - 1.6
25/10:30am 2.8 -6.5 2.8 100 0.0 W 41 65 22 35 - - 0.6
25/10:11am 3.1 -6.2 3.1 100 0.0 W 41 65 22 35 - - 0.2
25/10:02am 3.2 -3.6 3.2 100 0.0 W 28 46 15 25 - - 0.2
25/10:00am 3.2 -3.2 3.2 100 0.0 WNW 26 41 14 22 - - 0.2
25/09:30am 3.1 -4.5 3.1 100 0.0 WNW 32 50 17 27 - - 0.0
25/09:03am 2.8 -4.1 2.8 100 0.0 WNW 28 50 15 27 - - 0.0
25/09:00am 2.8 -3.7 2.8 100 0.0 WNW 26 41 14 22 - - 9.6
25/08:30am 2.4 -4.1 2.4 100 0.0 NW 26 44 14 24 - - 9.2
25/08:00am 2.3 -3.5 2.3 100 0.0 NW 22 35 12 19 - - 9.2
25/07:30am 2.1 -3.7 2.1 100 0.0 NW 22 32 12 17 - - 8.8
25/07:00am 1.9 -3.4 1.9 100 0.0 NW 19 28 10 15 - - 8.4
25/06:30am 2.0 -4.6 2.0 100 0.0 WNW 26 37 14 20 - - 8.4
25/06:06am 1.9 -5.5 1.9 100 0.0 WNW 30 48 16 26 - - 8.2
25/06:00am 1.8 -6.0 1.8 100 0.0 WNW 32 46 17 25 - - 8.2
25/05:30am 1.8 -7.3 1.8 100 0.0 WNW 39 65 21 35 - - 7.8
25/05:00am 1.7 -7.0 1.7 100 0.0 WNW 37 57 20 31 - - 7.4
25/04:33am 1.5 -7.7 1.5 100 0.0 W 39 65 21 35 - - 7.0
25/04:30am 1.5 -7.7 1.5 100 0.0 W 39 54 21 29 - - 7.0
25/04:24am 1.6 -6.8 1.6 100 0.0 W 35 54 19 29 - - 6.8
25/04:00am 1.4 -5.3 1.4 100 0.0 WNW 26 39 14 21 - - 6.2
25/03:30am 1.5 -8.4 1.5 100 0.0 W 43 57 23 31 - - 5.6
25/03:02am 1.4 -6.1 1.4 100 0.0 W 30 48 16 26 - - 5.6
25/03:00am 1.4 -6.4 1.4 100 0.0 W 32 46 17 25 - - 5.4
25/02:48am 1.4 -6.4 1.4 100 0.0 WNW 32 50 17 27 - - 5.4
25/02:30am 1.4 -5.7 1.4 100 0.0 WNW 28 37 15 20 - - 5.2
25/02:00am 1.4 -7.4 1.4 100 0.0 W 37 61 20 33 - - 5.2
25/01:48am 1.4 -6.1 1.4 100 0.0 WNW 30 54 16 29 - - 5.2
25/01:30am 1.3 -5.8 1.3 100 0.0 WNW 28 35 15 19 - - 4.8
25/01:00am 1.2 -6.3 1.2 100 0.0 WNW 30 39 16 21 - - 4.6
25/12:30am 1.1 -6.8 1.1 100 0.0 WNW 32 50 17 27 - - 4.4
25/12:00am 1.1 -6.4 1.1 100 0.0 WNW 30 50 16 27 - - 4.2
 
Date/Time
EST
Temp
°C
App
Temp
°C
Dew
Point
°C
Rel
Hum
%
Delta-T
°C
Wind Press
QNH
hPa
Press
MSL
hPa
Rain since
9am
mm
Dir  Spd
km/h
Gust
km/h
Spd
kts
Gust
kts
24/11:36pm 1.1 -6.0 1.1 100 0.0 WNW 28 46 15 25 - - 4.2
24/11:30pm 1.1 -7.0 1.1 100 0.0 W 33 46 18 25 - - 4.2
24/11:03pm 1.0 -6.2 1.0 100 0.0 WNW 28 46 15 25 - - 4.2
24/11:00pm 1.0 -5.8 1.0 100 0.0 WNW 26 46 14 25 - - 4.2
24/10:42pm 1.0 -6.2 1.0 100 0.0 WNW 28 46 15 25 - - 4.2
24/10:30pm 0.8 -6.0 0.8 100 0.0 WNW 26 50 14 27 - - 4.2
24/10:00pm 0.9 -7.2 0.9 100 0.0 WNW 33 44 18 24 - - 4.0
24/09:31pm 0.9 -8.4 0.9 100 0.0 WNW 39 61 21 33 - - 4.0
24/09:30pm 0.8 -8.5 0.8 100 0.0 WNW 39 56 21 30 - - 4.0
24/09:00pm 0.8 -8.1 0.8 100 0.0 WNW 37 57 20 31 - - 3.6
24/08:30pm 0.6 -7.6 0.6 100 0.0 WNW 33 52 18 28 - - 3.6
24/08:03pm 0.5 -8.8 0.5 100 0.0 WNW 39 57 21 31 - - 3.6
24/08:00pm 0.5 -9.2 0.5 100 0.0 WNW 41 57 22 31 - - 3.6
24/07:30pm 0.5 -8.4 0.5 100 0.0 W 37 56 20 30 - - 3.6
24/07:15pm 0.3 -7.9 0.3 100 0.0 W 33 52 18 28 - - 3.6
24/07:00pm 0.3 -8.3 0.3 100 0.0 W 35 50 19 27 - - 3.6
24/06:37pm 0.3 -9.0 0.3 100 0.0 WNW 39 59 21 32 - - 3.6
24/06:30pm 0.2 -9.2 0.2 100 0.0 W 39 52 21 28 - - 3.6
24/06:00pm 0.2 -8.4 0.1 99 0.0 W 35 52 19 28 - - 3.6
24/05:34pm 0.2 -9.9 0.1 99 0.0 W 43 61 23 33 - - 3.6
24/05:30pm 0.2 -10.1 0.1 99 0.0 W 44 61 24 33 - - 3.6
24/05:00pm 0.1 -8.0 0.0 99 0.0 W 32 52 17 28 - - 3.6
24/04:59pm 0.1 -8.2 0.0 99 0.0 W 33 52 18 28 - - 3.6
24/04:30pm 0.2 -8.4 -0.1 98 0.1 W 35 48 19 26 - - 3.6
24/04:00pm 0.1 -9.7 0.0 99 0.0 W 41 61 22 33 - - 3.6
24/03:30pm 0.2 -8.4 -0.1 98 0.1 W 35 57 19 31 - - 3.6
24/03:00pm 0.2 -10.0 -0.2 97 0.2 W 43 61 23 33 - - 3.6
24/02:30pm 0.1 -10.1 -0.2 98 0.1 W 43 61 23 33 - - 3.6
24/02:08pm 0.1 -8.5 0.0 99 0.0 W 35 54 19 29 - - 3.6
24/02:00pm 0.1 -8.9 -0.2 98 0.1 W 37 54 20 29 - - 3.6
24/01:51pm 0.2 -8.1 -0.1 98 0.1 W 33 52 18 28 - - 3.6
24/01:30pm 0.6 -8.4 0.0 96 0.2 W 37 48 20 26 - - 3.4
24/01:21pm 0.9 -8.5 0.2 95 0.3 W 39 57 21 31 - - 3.4
24/01:00pm 0.6 -10.9 0.0 96 0.2 WSW 50 78 27 42 - - 3.4
24/12:54pm 0.3 -9.9 -0.1 97 0.2 W 43 78 23 42 - - 3.4
24/12:30pm 0.0 -8.6 -0.1 99 0.0 W 35 54 19 29 - - 3.4
24/12:00pm 0.4 -7.6 0.1 98 0.1 W 32 50 17 27 - - 2.8
24/11:30am -0.1 -9.5 -0.2 99 0.0 W 39 57 21 31 - - 2.2
24/11:29am 0.0 -9.0 -0.1 99 0.0 W 37 57 20 31 - - 2.2
24/11:00am -0.3 -8.6 -0.4 99 0.0 WSW 33 50 18 27 - - 1.6
24/10:30am -0.1 -8.8 -0.2 99 0.0 W 35 46 19 25 - - 0.2
24/10:00am -0.4 -10.6 -0.5 99 0.0 WSW 43 54 23 29 - - 0.0
24/09:31am -0.7 -11.0 -0.7 100 0.0 W 43 61 23 33 - - 0.0
24/09:30am -0.7 -11.1 -0.7 100 0.0 WSW 44 61 24 33 - - 0.0
24/09:00am -0.7 -12.3 -0.7 100 0.0 WSW 50 74 27 40 - - 2.2
24/08:38am -1.0 -11.9 -1.0 100 0.0 W 46 65 25 35 - - 2.2
24/08:30am -1.0 -11.9 -1.0 100 0.0 WSW 46 57 25 31 - - 2.2
24/08:00am -1.2 -12.5 -1.2 100 0.0 WSW 48 74 26 40 - - 2.2
24/07:30am -1.3 -13.0 -1.3 100 0.0 WSW 50 69 27 37 - - 2.2
24/07:00am -1.2 -13.2 -1.3 99 0.0 WSW 52 72 28 39 - - 2.2
24/06:32am -1.4 -13.9 -1.5 99 0.0 WSW 54 72 29 39 - - 2.2
24/06:30am -1.4 -14.2 -1.5 99 0.0 WSW 56 72 30 39 - - 2.2
24/06:00am -1.3 -12.6 -1.3 100 0.0 W 48 72 26 39 - - 2.2
24/05:30am -1.4 -13.1 -1.5 99 0.0 WSW 50 70 27 38 - - 2.2
24/05:00am -1.5 -10.7 -1.6 99 0.0 WSW 37 56 20 30 - - 2.2
24/04:36am -1.6 -11.6 -1.7 99 0.0 WSW 41 61 22 33 - - 2.2
24/04:30am -1.6 -12.0 -1.7 99 0.0 WSW 43 59 23 32 - - 2.2
24/04:00am -1.8 -10.1 -1.9 99 0.0 WSW 32 56 17 30 - - 2.2
24/03:53am -1.8 -9.7 -1.9 99 0.0 W 30 56 16 30 - - 2.2
24/03:30am -1.8 -9.8 -2.2 97 0.1 WSW 30 44 16 24 - - 2.2
24/03:00am -1.9 -10.3 -2.3 97 0.1 W 32 52 17 28 - - 2.2
24/02:30am -1.8 -10.4 -2.4 96 0.1 WSW 33 52 18 28 - - 2.2
24/02:00am -1.7 -9.3 -2.5 94 0.2 WSW 28 48 15 26 - - 2.2
24/01:59am -1.7 -9.3 -2.5 94 0.2 WSW 28 48 15 26 - - 2.2
24/01:30am -1.9 -11.3 -2.6 95 0.2 WSW 37 54 20 29 - - 2.2
24/01:17am -1.9 -10.9 -2.7 94 0.2 WSW 35 54 19 29 - - 2.2
24/01:00am -1.8 -11.5 -2.5 95 0.2 WSW 39 54 21 29 - - 2.2
24/12:44am -2.0 -11.4 -2.6 96 0.1 WSW 37 56 20 30 - - 2.2
24/12:30am -1.8 -11.5 -2.2 97 0.1 WSW 39 50 21 27 - - 2.2
24/12:00am -1.7 -12.1 -2.0 98 0.0 WSW 43 61 23 33 - - 2.2
 
Date/Time
EST
Temp
°C
App
Temp
°C
Dew
Point
°C
Rel
Hum
%
Delta-T
°C
Wind Press
QNH
hPa
Press
MSL
hPa
Rain since
9am
mm
Dir  Spd
km/h
Gust
km/h
Spd
kts
Gust
kts
23/11:31pm -1.9 -12.9 -2.0 99 -0.1 WSW 46 65 25 35 - - 2.2
23/11:30pm -1.8 -12.8 -1.9 99 0.0 WSW 46 63 25 34 - - 2.2
23/11:00pm -2.1 -12.7 -2.2 99 -0.1 WSW 44 65 24 35 - - 2.2
23/10:59pm -2.1 -12.7 -2.2 99 -0.1 WSW 44 65 24 35 - - 2.2
23/10:47pm -1.8 -13.2 -1.9 99 0.0 WSW 48 87 26 47 - - 2.2
23/10:30pm -1.6 -12.0 -1.7 99 0.0 WSW 43 74 23 40 - - 2.2
23/10:00pm -1.6 -12.0 -1.6 100 0.0 WSW 43 63 23 34 - - 2.2
23/09:30pm -1.2 -11.2 -1.3 99 0.0 WSW 41 61 22 33 - - 2.2
23/09:00pm -1.1 -10.3 -1.2 99 0.0 WSW 37 61 20 33 - - 2.2
23/08:31pm -1.0 -10.5 -1.1 99 0.0 WSW 39 57 21 31 - - 2.2
23/08:30pm -1.0 -10.5 -1.1 99 0.0 WSW 39 56 21 30 - - 2.2
23/08:00pm -0.9 -9.1 -1.0 99 0.0 W 32 59 17 32 - - 2.2
23/07:30pm -0.7 -8.5 -0.8 99 0.0 WSW 30 54 16 29 - - 2.2
23/07:03pm -0.8 -9.0 -0.9 99 0.0 WSW 32 56 17 30 - - 2.2
23/07:00pm -0.7 -7.8 -1.0 98 0.1 WSW 26 56 14 30 - - 2.2
23/06:30pm -0.8 -9.6 -0.9 99 0.0 WSW 35 57 19 31 - - 2.2
23/06:00pm -0.5 -8.6 -0.5 100 0.0 W 32 61 17 33 - - 2.2
23/05:35pm -0.6 -10.8 -0.6 100 0.0 WSW 43 83 23 45 - - 2.2
23/05:32pm -0.5 -10.7 -0.5 100 0.0 WSW 43 63 23 34 - - 2.2
23/05:30pm -0.5 -10.9 -0.5 100 0.0 WSW 44 61 24 33 - - 2.2
23/05:00pm -0.1 -9.9 -0.1 100 0.0 WSW 41 69 22 37 - - 2.0
23/04:30pm 0.1 -11.0 0.0 99 0.0 WSW 48 78 26 42 - - 2.0
23/04:12pm 0.9 -10.1 0.8 99 0.0 WSW 48 67 26 36 - - 2.0
23/04:00pm 1.4 -10.3 1.3 99 0.0 WSW 52 69 28 37 - - 2.0
23/03:59pm 1.4 -10.3 1.3 99 0.0 WSW 52 69 28 37 - - 2.0
23/03:30pm 3.1 -5.5 2.7 97 0.2 W 37 63 20 34 - - 1.8
23/03:00pm 3.8 -3.7 3.5 98 0.1 W 32 69 17 37 - - 1.8
23/02:50pm 3.9 -2.1 3.6 98 0.1 W 24 63 13 34 - - 1.8
23/02:37pm 3.7 -5.1 3.4 98 0.1 W 39 63 21 34 - - 1.8
23/02:30pm 3.7 -6.5 3.4 98 0.1 WNW 46 70 25 38 - - 1.8
23/02:09pm 3.5 -5.8 3.2 98 0.1 WNW 41 82 22 44 - - 1.8
23/02:04pm 3.8 -3.7 3.7 99 0.0 W 32 67 17 36 - - 1.8
23/02:00pm 3.7 -4.7 3.6 99 0.0 W 37 78 20 42 - - 1.8
23/01:58pm 3.7 -5.9 3.6 99 0.0 WNW 43 78 23 42 - - 1.8
23/01:30pm 4.0 -8.6 3.7 98 0.1 WNW 59 98 32 53 - - 1.2
23/01:27pm 4.1 -8.5 3.8 98 0.1 WNW 59 98 32 53 - - 1.2
23/01:07pm 4.6 -8.3 4.2 97 0.2 WNW 61 95 33 51 - - 1.0
23/01:00pm 4.7 -6.9 4.1 96 0.3 WNW 54 95 29 51 - - 1.0
23/12:30pm 5.2 -6.3 4.6 96 0.3 WNW 54 89 29 48 - - 0.6
23/12:18pm 5.3 -6.5 4.6 95 0.3 WNW 56 96 30 52 - - 0.4
23/12:00pm 5.2 -4.2 4.6 96 0.3 NW 43 70 23 38 - - 0.4
23/11:30am 5.3 -4.3 4.4 94 0.4 NW 44 67 24 36 - - 0.4
23/11:13am 5.2 -4.4 4.2 93 0.4 NW 44 80 24 43 - - 0.4
23/11:11am 5.2 -4.8 4.2 93 0.4 NW 46 80 25 43 - - 0.4
23/11:06am 5.3 -4.4 4.1 92 0.5 NW 44 80 24 43 - - 0.4
23/11:01am 5.2 -2.7 4.3 94 0.4 NW 35 78 19 42 - - 0.4
23/11:00am 5.3 -2.2 4.4 94 0.4 NW 33 59 18 32 - - 0.4
23/10:30am 4.9 -5.1 4.5 97 0.2 WNW 46 80 25 43 - - 0.4
23/10:04am 4.4 -3.9 4.0 97 0.2 NW 37 63 20 34 - - 0.4
23/10:00am 4.3 -3.1 3.9 97 0.2 NW 32 48 17 26 - - 0.2
23/09:30am 4.2 -2.5 3.8 97 0.2 NW 28 56 15 30 - - 0.0
23/09:00am 4.3 -3.1 3.9 97 0.2 WNW 32 50 17 27 - - 1.0
23/08:30am 4.2 -4.2 3.8 97 0.2 WNW 37 59 20 32 - - 1.0
23/08:00am 4.3 -3.3 3.7 96 0.3 WNW 33 56 18 30 - - 0.8
23/07:32am 4.2 -2.9 3.6 96 0.3 WNW 30 54 16 29 - - 0.8
23/07:30am 4.2 -2.5 3.6 96 0.3 NW 28 41 15 22 - - 0.6
23/07:00am 4.3 -3.2 3.7 96 0.3 WNW 32 41 17 22 - - 0.6
23/06:58am 4.3 -3.1 3.9 97 0.2 WNW 32 50 17 27 - - 0.6
23/06:30am 4.3 -3.2 3.7 96 0.3 WNW 32 44 17 24 - - 0.6
23/06:00am 4.4 -4.4 3.5 94 0.4 WNW 39 61 21 33 - - 0.6
23/05:30am 4.2 -4.2 3.8 97 0.2 W 37 59 20 32 - - 0.6
23/05:22am 4.2 -2.5 3.8 97 0.2 W 28 50 15 27 - - 0.6
23/05:00am 4.2 -1.8 3.5 95 0.3 WNW 24 37 13 20 - - 0.4
23/04:30am 4.4 -3.7 3.2 92 0.5 WNW 35 50 19 27 - - 0.4
23/04:21am 4.3 -2.5 3.1 92 0.5 WNW 28 50 15 27 - - 0.4
23/04:00am 4.0 -3.2 2.8 92 0.5 WNW 30 43 16 23 - - 0.4
23/03:30am 4.2 -3.9 3.2 93 0.4 WNW 35 48 19 26 - - 0.4
23/03:00am 3.9 -2.9 3.3 96 0.3 WNW 28 39 15 21 - - 0.4
23/02:30am 3.9 -3.6 3.3 96 0.3 WNW 32 43 17 23 - - 0.4
23/02:20am 3.9 -3.8 3.3 96 0.3 WNW 33 52 18 28 - - 0.4
23/02:00am 3.9 -5.3 3.3 96 0.3 WNW 41 56 22 30 - - 0.4
23/01:30am 3.6 -4.5 3.2 97 0.2 WNW 35 46 19 25 - - 0.4
23/01:08am 3.6 -4.5 3.2 97 0.2 WNW 35 54 19 29 - - 0.4
23/01:00am 3.7 -4.4 3.3 97 0.2 WNW 35 44 19 24 - - 0.4
23/12:30am 3.9 -4.6 3.3 96 0.3 WNW 37 56 20 30 - - 0.4
23/12:00am 3.7 -4.8 3.4 98 0.1 W 37 57 20 31 - - 0.4
 
Date/Time
EST
Temp
°C
App
Temp
°C
Dew
Point
°C
Rel
Hum
%
Delta-T
°C
Wind Press
QNH
hPa
Press
MSL
hPa
Rain since
9am
mm
Dir  Spd
km/h
Gust
km/h
Spd
kts
Gust
kts
22/11:30pm 3.5 -4.3 3.1 97 0.2 WNW 33 54 18 29 - - 0.4
22/11:22pm 3.4 -4.4 3.0 97 0.2 WNW 33 54 18 29 - - 0.4
22/11:00pm 3.3 -5.2 2.9 97 0.2 WNW 37 50 20 27 - - 0.4
22/10:50pm 3.3 -6.0 2.7 96 0.3 WNW 41 59 22 32 - - 0.4
22/10:30pm 3.4 -6.0 2.5 94 0.4 WNW 41 57 22 31 - - 0.4

Other Formats:

Comma delimited format used in spreadsheet applications
http://www.bom.gov.au/fwo/IDT60801/IDT60801.94977.axf

JavaScript Object Notation format (JSON) in row-major order
http://www.bom.gov.au/fwo/IDT60801/IDT60801.94977.json